createdAt,value
2019-04-30T00:02:35.990Z,10.40
2019-04-30T00:05:01.889Z,10.50
2019-04-30T00:07:31.609Z,10.40
2019-04-30T00:10:01.173Z,10.30
2019-04-30T00:12:35.371Z,10.40
2019-04-30T00:15:02.216Z,10.40
2019-04-30T00:17:33.417Z,10.50
2019-04-30T00:20:03.133Z,10.60
2019-04-30T00:22:34.319Z,10.70
2019-04-30T00:25:05.386Z,10.80
2019-04-30T00:27:35.639Z,10.70
2019-04-30T00:30:09.536Z,10.70
2019-04-30T00:32:43.552Z,10.70
2019-04-30T00:35:11.833Z,10.60
2019-04-30T00:37:41.851Z,10.70
2019-04-30T00:40:11.624Z,10.70
2019-04-30T00:42:41.425Z,10.60
2019-04-30T00:45:12.191Z,10.70
2019-04-30T00:47:44.476Z,10.70
2019-04-30T00:50:14.991Z,10.80
2019-04-30T00:52:45.752Z,10.70
2019-04-30T00:55:15.416Z,10.70
2019-04-30T00:57:47.387Z,10.70
2019-04-30T01:00:25.299Z,10.80
2019-04-30T01:02:52.917Z,10.80
2019-04-30T01:05:25.512Z,10.90
2019-04-30T01:07:55.092Z,10.80
2019-04-30T01:10:28.341Z,10.70
2019-04-30T01:13:01.757Z,10.80
2019-04-30T01:15:29.186Z,10.70
2019-04-30T01:17:59.433Z,10.70
2019-04-30T01:20:32.709Z,10.70
2019-04-30T01:23:03.169Z,10.70
2019-04-30T01:25:35.762Z,10.70
2019-04-30T01:28:06.439Z,10.70
2019-04-30T01:30:36.083Z,10.70
2019-04-30T01:33:05.811Z,10.70
2019-04-30T01:35:35.476Z,10.70
2019-04-30T01:38:11.167Z,10.60
2019-04-30T01:40:38.399Z,10.60
2019-04-30T01:43:09.098Z,10.50
2019-04-30T01:45:39.327Z,10.20
2019-04-30T01:48:12.130Z,10.20
2019-04-30T01:50:42.018Z,10.20
2019-04-30T01:53:13.233Z,10.20
2019-04-30T01:55:59.343Z,10.20
2019-04-30T01:58:46.819Z,10.00
2019-04-30T02:01:19.004Z,10.00
2019-04-30T02:03:49.614Z,10.00
2019-04-30T02:06:19.688Z,10.00
2019-04-30T02:08:49.503Z,9.90
2019-04-30T02:11:20.152Z,9.80
2019-04-30T02:13:49.774Z,9.80
2019-04-30T02:16:21.076Z,9.80
2019-04-30T02:18:51.621Z,9.80
2019-04-30T02:21:21.198Z,9.80
2019-04-30T02:23:50.739Z,9.70
2019-04-30T02:26:20.460Z,9.70
2019-04-30T02:28:50.096Z,9.60
2019-04-30T02:31:22.817Z,9.60
2019-04-30T02:33:55.340Z,9.70
2019-04-30T02:36:40.380Z,9.70
2019-04-30T02:39:11.120Z,9.70
2019-04-30T02:41:42.019Z,9.60
2019-04-30T02:44:12.028Z,9.60
2019-04-30T02:46:43.478Z,9.60
2019-04-30T02:49:14.619Z,9.60
2019-04-30T02:51:44.902Z,9.60
2019-04-30T02:54:22.920Z,9.60
2019-04-30T02:56:50.749Z,9.50
2019-04-30T02:59:20.463Z,9.60
2019-04-30T03:01:50.363Z,9.60
2019-04-30T03:04:20.968Z,9.70
2019-04-30T03:06:50.616Z,9.60
2019-04-30T03:09:20.479Z,9.60
2019-04-30T03:11:50.370Z,9.70
2019-04-30T03:14:21.031Z,9.70
2019-04-30T03:17:00.159Z,9.70
2019-04-30T03:19:30.980Z,9.70
2019-04-30T03:22:14.234Z,9.70
2019-04-30T03:24:43.908Z,9.70
2019-04-30T03:27:13.465Z,9.80
2019-04-30T03:29:43.031Z,9.80
2019-04-30T03:32:14.100Z,9.80
2019-04-30T03:34:44.864Z,9.80
2019-04-30T03:37:15.571Z,9.80
2019-04-30T03:39:45.128Z,9.70
2019-04-30T03:42:14.735Z,9.70
2019-04-30T03:44:44.269Z,9.70
2019-04-30T03:47:13.908Z,9.70
2019-04-30T03:49:43.480Z,9.70
2019-04-30T03:52:13.616Z,9.60
2019-04-30T03:54:43.270Z,9.60
2019-04-30T03:57:12.847Z,9.50
2019-04-30T03:59:42.446Z,9.50
2019-04-30T04:02:13.646Z,9.40
2019-04-30T04:04:53.586Z,9.40
2019-04-30T04:07:29.964Z,9.40
2019-04-30T04:10:12.696Z,9.30
2019-04-30T04:12:42.269Z,9.30
2019-04-30T04:15:11.958Z,9.30
2019-04-30T04:17:41.520Z,9.30
2019-04-30T04:20:11.151Z,9.30
2019-04-30T04:22:40.717Z,9.30
2019-04-30T04:25:13.284Z,9.30
2019-04-30T04:27:41.768Z,9.30
2019-04-30T04:30:11.468Z,9.40
2019-04-30T04:32:41.090Z,9.40
2019-04-30T04:35:12.832Z,9.40
2019-04-30T04:37:42.309Z,9.40
2019-04-30T04:40:12.348Z,9.40
2019-04-30T04:42:41.895Z,9.50
2019-04-30T04:45:11.665Z,9.40
2019-04-30T04:47:41.210Z,9.50
2019-04-30T04:50:10.980Z,9.60
2019-04-30T04:52:40.533Z,9.50
2019-04-30T04:55:11.695Z,9.40
2019-04-30T04:57:41.242Z,9.30
2019-04-30T05:00:11.215Z,9.30
2019-04-30T05:02:49.798Z,9.30
2019-04-30T05:05:20.526Z,9.30
2019-04-30T05:07:50.101Z,9.30
2019-04-30T05:10:20.021Z,9.20
2019-04-30T05:12:51.071Z,9.20
2019-04-30T05:15:20.792Z,9.10
2019-04-30T05:17:50.314Z,9.20
2019-04-30T05:20:19.870Z,9.20
2019-04-30T05:22:49.399Z,9.20
2019-04-30T05:25:19.005Z,9.20
2019-04-30T05:27:48.871Z,9.30
2019-04-30T05:30:19.863Z,9.30
2019-04-30T05:32:50.845Z,9.40
2019-04-30T05:35:20.614Z,9.70
2019-04-30T05:37:50.153Z,9.80
2019-04-30T05:40:19.754Z,9.90
2019-04-30T05:42:49.602Z,10.00
2019-04-30T05:45:19.513Z,10.20
2019-04-30T05:47:50.604Z,10.20
2019-04-30T05:50:20.349Z,10.30
2019-04-30T05:52:49.969Z,10.40
2019-04-30T05:55:19.907Z,10.30
2019-04-30T05:57:55.765Z,10.40
2019-04-30T06:00:20.880Z,10.60
2019-04-30T06:02:50.574Z,10.70
2019-04-30T06:05:21.197Z,10.80
2019-04-30T06:07:52.054Z,10.90
2019-04-30T06:10:26.092Z,10.90
2019-04-30T06:12:59.328Z,10.90
2019-04-30T06:15:49.041Z,10.90
2019-04-30T06:18:20.337Z,11.00
2019-04-30T06:20:50.064Z,11.00
2019-04-30T06:23:19.774Z,11.10
2019-04-30T06:25:57.533Z,11.10
2019-04-30T06:28:23.418Z,11.20
2019-04-30T06:30:53.190Z,11.20
2019-04-30T06:33:22.881Z,11.30
2019-04-30T06:35:52.870Z,11.40
2019-04-30T06:38:22.470Z,11.60
2019-04-30T06:40:52.057Z,11.60
2019-04-30T06:43:22.370Z,11.80
2019-04-30T06:45:52.174Z,11.80
2019-04-30T06:48:22.752Z,12.00
2019-04-30T06:50:52.313Z,12.10
2019-04-30T06:53:22.842Z,12.20
2019-04-30T06:55:52.454Z,12.30
2019-04-30T06:58:21.996Z,12.40
2019-04-30T07:00:51.550Z,12.50
2019-04-30T07:03:21.096Z,12.60
2019-04-30T07:05:50.645Z,12.70
2019-04-30T07:08:39.572Z,12.80
2019-04-30T07:11:19.582Z,12.90
2019-04-30T07:13:52.543Z,13.00
2019-04-30T07:16:22.132Z,13.20
2019-04-30T07:18:51.807Z,13.30
2019-04-30T07:21:23.115Z,13.40
2019-04-30T07:23:53.234Z,13.60
2019-04-30T07:26:24.300Z,13.80
2019-04-30T07:28:55.254Z,13.90
2019-04-30T07:31:25.265Z,14.00
2019-04-30T07:33:54.822Z,14.10
2019-04-30T07:36:42.422Z,14.20
2019-04-30T07:38:56.824Z,14.10
2019-04-30T07:41:26.849Z,14.20
2019-04-30T07:43:56.392Z,14.30
2019-04-30T07:46:26.100Z,14.40
2019-04-30T07:48:56.158Z,14.50
2019-04-30T07:51:26.179Z,14.60
2019-04-30T07:53:56.375Z,14.70
2019-04-30T07:56:32.403Z,14.80
2019-04-30T07:59:00.766Z,15.00
2019-04-30T08:01:30.224Z,15.20
2019-04-30T08:04:03.997Z,15.30
2019-04-30T08:06:34.713Z,15.50
2019-04-30T08:09:10.297Z,15.60
2019-04-30T08:11:43.525Z,15.70
2019-04-30T08:14:10.461Z,15.80
2019-04-30T08:16:40.977Z,16.00
2019-04-30T08:19:10.682Z,16.20
2019-04-30T08:21:40.231Z,16.30
2019-04-30T08:24:09.877Z,16.50
2019-04-30T08:26:39.828Z,16.60
2019-04-30T08:29:09.732Z,16.80
2019-04-30T08:31:40.918Z,16.90
2019-04-30T08:34:11.747Z,16.90
2019-04-30T08:36:41.440Z,17.00
2019-04-30T08:39:11.125Z,17.00
2019-04-30T08:41:42.226Z,17.10
2019-04-30T08:44:12.413Z,17.10
2019-04-30T08:46:42.104Z,17.10
2019-04-30T08:49:11.703Z,17.30
2019-04-30T08:51:41.633Z,17.60
2019-04-30T08:54:11.314Z,17.70
2019-04-30T08:56:40.886Z,17.70
2019-04-30T08:59:11.162Z,17.70
2019-04-30T09:01:42.019Z,17.60
2019-04-30T09:04:11.556Z,17.60
2019-04-30T09:06:41.392Z,17.70
2019-04-30T09:09:12.752Z,17.80
2019-04-30T09:11:52.427Z,17.90
2019-04-30T09:14:13.630Z,18.00
2019-04-30T09:16:43.326Z,18.00
2019-04-30T09:19:14.552Z,18.20
2019-04-30T09:21:44.172Z,18.30
2019-04-30T09:24:13.884Z,18.50
2019-04-30T09:26:43.507Z,18.60
2019-04-30T09:29:13.367Z,18.50
2019-04-30T09:31:43.050Z,18.60
2019-04-30T09:34:17.516Z,19.10
2019-04-30T09:36:43.943Z,19.30
2019-04-30T09:39:13.633Z,19.30
2019-04-30T09:41:43.639Z,19.30
2019-04-30T09:44:13.352Z,19.30
2019-04-30T09:46:42.987Z,19.30
2019-04-30T09:49:12.604Z,19.30
2019-04-30T09:51:42.439Z,19.30
2019-04-30T09:54:12.952Z,19.20
2019-04-30T09:56:44.268Z,18.90
2019-04-30T09:59:13.820Z,19.10
2019-04-30T10:01:43.608Z,19.50
2019-04-30T10:04:13.571Z,19.70
2019-04-30T10:06:43.425Z,19.70
2019-04-30T10:09:14.681Z,19.90
2019-04-30T10:11:45.947Z,20.10
2019-04-30T10:14:15.539Z,20.50
2019-04-30T10:16:52.390Z,20.10
2019-04-30T10:19:22.926Z,20.10
2019-04-30T10:21:52.490Z,20.20
2019-04-30T10:24:22.107Z,20.60
2019-04-30T10:26:51.756Z,20.80
2019-04-30T10:29:22.670Z,20.70
2019-04-30T10:31:52.364Z,20.80
2019-04-30T10:34:21.978Z,21.10
2019-04-30T10:36:52.633Z,21.50
2019-04-30T10:39:22.537Z,21.70
2019-04-30T10:41:52.131Z,21.50
2019-04-30T10:44:23.706Z,21.20
2019-04-30T10:46:53.256Z,20.70
2019-04-30T10:49:22.860Z,20.10
2019-04-30T10:51:52.562Z,20.10
2019-04-30T10:54:26.356Z,20.60
2019-04-30T10:56:54.812Z,20.60
2019-04-30T10:59:24.411Z,20.60
2019-04-30T11:01:54.050Z,20.70
2019-04-30T11:04:25.601Z,21.10
2019-04-30T11:06:55.163Z,21.30
2019-04-30T11:09:29.296Z,21.60
2019-04-30T11:12:02.693Z,21.80
2019-04-30T11:14:31.326Z,22.10
2019-04-30T11:17:01.221Z,22.10
2019-04-30T11:19:31.219Z,22.60
2019-04-30T11:22:01.112Z,22.30
2019-04-30T11:24:38.140Z,22.00
2019-04-30T11:27:02.525Z,22.30
2019-04-30T11:29:32.668Z,22.10
2019-04-30T11:32:04.169Z,22.20
2019-04-30T11:34:33.892Z,22.50
2019-04-30T11:37:03.494Z,22.70
2019-04-30T11:39:33.349Z,22.60
2019-04-30T11:42:03.113Z,22.80
2019-04-30T11:44:32.731Z,22.80
2019-04-30T11:47:05.330Z,23.00
2019-04-30T11:49:34.960Z,22.80
2019-04-30T11:52:04.762Z,22.60
2019-04-30T11:54:34.407Z,22.40
2019-04-30T11:57:04.082Z,22.50
2019-04-30T11:59:33.642Z,22.70
2019-04-30T12:02:04.829Z,23.10
2019-04-30T12:04:34.376Z,23.50
2019-04-30T12:07:05.876Z,23.70
2019-04-30T12:09:52.246Z,23.10
2019-04-30T12:12:21.802Z,22.40
2019-04-30T12:14:51.435Z,22.70
2019-04-30T12:17:21.059Z,23.30
2019-04-30T12:19:50.624Z,23.60
2019-04-30T12:22:20.357Z,24.00
2019-04-30T12:25:02.050Z,24.10
2019-04-30T12:27:21.171Z,24.00
2019-04-30T12:29:50.792Z,23.70
2019-04-30T12:32:21.406Z,23.90
2019-04-30T12:34:50.971Z,24.00
2019-04-30T12:37:20.606Z,23.80
2019-04-30T12:39:50.146Z,23.20
2019-04-30T12:42:19.690Z,23.40
2019-04-30T12:44:49.611Z,22.80
2019-04-30T12:47:21.760Z,22.80
2019-04-30T12:50:01.115Z,23.20
2019-04-30T12:52:39.543Z,23.50
2019-04-30T12:55:29.263Z,23.40
2019-04-30T12:58:01.590Z,23.90
2019-04-30T13:00:31.617Z,23.50
2019-04-30T13:03:01.974Z,23.90
2019-04-30T13:05:31.595Z,24.20
2019-04-30T13:08:01.492Z,23.80
2019-04-30T13:10:32.132Z,24.00
2019-04-30T13:13:02.398Z,24.10
2019-04-30T13:15:33.336Z,24.10
2019-04-30T13:18:05.406Z,24.50
2019-04-30T13:20:36.418Z,25.10
2019-04-30T13:23:06.044Z,24.70
2019-04-30T13:25:39.251Z,23.80
2019-04-30T13:28:08.542Z,24.60
2019-04-30T13:30:39.637Z,24.70
2019-04-30T13:33:13.455Z,24.90
2019-04-30T13:35:43.151Z,25.50
2019-04-30T13:38:23.015Z,25.40
2019-04-30T13:40:58.823Z,24.80
2019-04-30T13:43:45.442Z,24.70
2019-04-30T13:46:15.134Z,24.40
2019-04-30T13:48:44.752Z,25.00
2019-04-30T13:51:14.377Z,25.10
2019-04-30T13:53:43.998Z,25.40
2019-04-30T13:56:13.617Z,25.40
2019-04-30T13:58:43.248Z,25.80
2019-04-30T14:01:12.907Z,26.30
2019-04-30T14:03:44.154Z,26.40
2019-04-30T14:06:15.345Z,26.60
2019-04-30T14:08:48.307Z,26.50
2019-04-30T14:11:18.969Z,26.10
2019-04-30T14:13:49.640Z,26.60
2019-04-30T14:16:19.529Z,26.20
2019-04-30T14:18:49.091Z,25.90
2019-04-30T14:21:19.401Z,25.30
2019-04-30T14:23:50.893Z,25.10
2019-04-30T14:26:21.083Z,25.00
2019-04-30T14:28:50.713Z,25.00
2019-04-30T14:31:21.264Z,24.80
2019-04-30T14:33:50.910Z,24.20
2019-04-30T14:36:20.539Z,24.20
2019-04-30T14:38:50.182Z,24.50
2019-04-30T14:41:20.865Z,24.40
2019-04-30T14:43:55.903Z,24.40
2019-04-30T14:46:45.362Z,24.50
2019-04-30T14:49:17.606Z,23.90
2019-04-30T14:51:49.034Z,23.80
2019-04-30T14:54:23.519Z,23.60
2019-04-30T14:56:54.712Z,23.30
2019-04-30T14:59:29.063Z,23.10
2019-04-30T15:02:00.359Z,22.90
2019-04-30T15:04:29.992Z,22.80
2019-04-30T15:06:59.713Z,22.80
2019-04-30T15:09:29.262Z,23.00
2019-04-30T15:11:58.889Z,23.10
2019-04-30T15:14:28.459Z,23.50
2019-04-30T15:16:58.069Z,23.90
2019-04-30T15:19:27.765Z,23.80
2019-04-30T15:22:00.440Z,24.40
2019-04-30T15:24:32.720Z,24.80
2019-04-30T15:27:02.362Z,24.70
2019-04-30T15:29:32.048Z,24.60
2019-04-30T15:32:01.666Z,24.60
2019-04-30T15:34:31.299Z,24.80
2019-04-30T15:37:00.999Z,24.90
2019-04-30T15:39:35.043Z,25.10
2019-04-30T15:42:04.943Z,25.10
2019-04-30T15:44:39.910Z,24.80
2019-04-30T15:47:06.243Z,24.40
2019-04-30T15:49:35.873Z,23.90
2019-04-30T15:52:05.654Z,23.80
2019-04-30T15:54:35.433Z,24.00
2019-04-30T15:57:05.603Z,24.30
2019-04-30T15:59:39.756Z,24.40
2019-04-30T16:02:12.138Z,24.60
2019-04-30T16:04:52.237Z,24.10
2019-04-30T16:07:21.860Z,24.10
2019-04-30T16:09:58.713Z,24.00
2019-04-30T16:12:35.526Z,23.80
2019-04-30T16:15:09.872Z,23.90
2019-04-30T16:17:39.338Z,23.50
2019-04-30T16:20:09.147Z,23.50
2019-04-30T16:22:39.773Z,23.20
2019-04-30T16:25:09.924Z,23.10
2019-04-30T16:27:39.622Z,23.10
2019-04-30T16:30:09.683Z,23.10
2019-04-30T16:32:41.108Z,23.00
2019-04-30T16:35:10.815Z,22.90
2019-04-30T16:37:40.381Z,22.50
2019-04-30T16:40:11.614Z,22.30
2019-04-30T16:42:41.252Z,22.20
2019-04-30T16:45:11.120Z,22.00
2019-04-30T16:47:40.950Z,22.00
2019-04-30T16:50:12.842Z,22.00
2019-04-30T16:52:41.706Z,22.00
2019-04-30T16:55:11.392Z,22.10
2019-04-30T16:57:41.375Z,22.00
2019-04-30T17:00:13.448Z,22.00
2019-04-30T17:02:44.792Z,21.90
2019-04-30T17:05:16.155Z,21.90
2019-04-30T17:07:50.565Z,21.80
2019-04-30T17:10:36.326Z,21.70
2019-04-30T17:13:23.448Z,21.60
2019-04-30T17:15:57.447Z,21.20
2019-04-30T17:18:27.007Z,21.00
2019-04-30T17:20:58.487Z,20.90
2019-04-30T17:23:29.306Z,20.80
2019-04-30T17:25:58.972Z,20.70
2019-04-30T17:28:28.586Z,20.70
2019-04-30T17:30:58.893Z,20.50
2019-04-30T17:33:28.566Z,20.50
2019-04-30T17:35:58.196Z,20.40
2019-04-30T17:38:27.747Z,20.30
2019-04-30T17:40:57.518Z,20.30
2019-04-30T17:43:27.146Z,20.20
2019-04-30T17:45:56.710Z,20.10
2019-04-30T17:48:26.322Z,20.10
2019-04-30T17:50:55.873Z,20.00
2019-04-30T17:53:25.773Z,19.90
2019-04-30T17:55:55.334Z,19.80
2019-04-30T17:58:24.891Z,19.70
2019-04-30T18:00:56.147Z,19.50
2019-04-30T18:03:25.708Z,19.40
2019-04-30T18:05:56.829Z,19.20
2019-04-30T18:08:26.374Z,19.10
2019-04-30T18:10:56.081Z,19.00
2019-04-30T18:13:25.705Z,18.90
2019-04-30T18:15:55.391Z,18.90
2019-04-30T18:18:27.737Z,18.80
2019-04-30T18:21:14.837Z,18.80
2019-04-30T18:23:46.144Z,18.70
2019-04-30T18:26:17.577Z,18.60
2019-04-30T18:28:47.387Z,18.50
2019-04-30T18:31:18.683Z,18.50
2019-04-30T18:33:49.235Z,18.40
2019-04-30T18:36:19.708Z,18.50
2019-04-30T18:38:50.274Z,18.50
2019-04-30T18:41:19.926Z,18.40
2019-04-30T18:43:50.630Z,18.30
2019-04-30T18:46:20.250Z,18.20
2019-04-30T18:48:52.591Z,18.00
2019-04-30T18:51:35.854Z,18.00
2019-04-30T18:53:52.509Z,17.80
2019-04-30T18:56:22.201Z,17.60
2019-04-30T18:58:51.758Z,17.60
2019-04-30T19:01:21.535Z,17.50
2019-04-30T19:03:51.159Z,17.50
2019-04-30T19:06:25.746Z,17.50
2019-04-30T19:08:55.476Z,17.40
2019-04-30T19:11:28.754Z,17.50
2019-04-30T19:13:59.638Z,17.40
2019-04-30T19:16:46.799Z,17.30
2019-04-30T19:19:24.065Z,17.30
2019-04-30T19:21:55.159Z,17.40
2019-04-30T19:24:24.885Z,17.40
2019-04-30T19:26:54.507Z,17.40
2019-04-30T19:29:24.064Z,17.40
2019-04-30T19:31:53.679Z,17.30
2019-04-30T19:34:23.232Z,17.30
2019-04-30T19:36:52.944Z,17.30
2019-04-30T19:39:22.499Z,17.30
2019-04-30T19:41:52.119Z,17.40
2019-04-30T19:44:21.831Z,17.40
2019-04-30T19:46:51.452Z,17.30
2019-04-30T19:49:21.111Z,17.20
2019-04-30T19:51:53.311Z,17.20
2019-04-30T19:54:21.886Z,17.20
2019-04-30T19:56:51.590Z,17.20
2019-04-30T19:59:21.134Z,17.20
2019-04-30T20:01:50.767Z,17.20
2019-04-30T20:04:32.423Z,17.20
2019-04-30T20:06:51.585Z,17.10
2019-04-30T20:09:21.215Z,17.10
2019-04-30T20:11:50.827Z,17.00
2019-04-30T20:14:20.388Z,16.90
2019-04-30T20:16:49.935Z,16.90
2019-04-30T20:19:19.568Z,16.80
2019-04-30T20:21:53.602Z,16.80
2019-04-30T20:24:21.401Z,16.90
2019-04-30T20:27:03.570Z,16.90
2019-04-30T20:29:22.197Z,16.90
2019-04-30T20:31:53.363Z,16.90
2019-04-30T20:34:23.017Z,16.80
2019-04-30T20:36:52.628Z,16.80
2019-04-30T20:39:23.814Z,16.80
2019-04-30T20:41:53.435Z,16.80
2019-04-30T20:44:23.320Z,16.80
2019-04-30T20:46:52.954Z,16.80
2019-04-30T20:49:22.573Z,16.80
2019-04-30T20:51:55.624Z,16.80
2019-04-30T20:54:23.474Z,16.80
2019-04-30T20:56:53.104Z,16.80
2019-04-30T20:59:22.654Z,16.80
2019-04-30T21:01:52.677Z,16.80
2019-04-30T21:04:22.362Z,16.70
2019-04-30T21:06:51.972Z,16.80
2019-04-30T21:09:21.691Z,16.80
2019-04-30T21:11:51.306Z,16.60
2019-04-30T21:14:20.941Z,16.60
2019-04-30T21:16:50.490Z,16.60
2019-04-30T21:19:20.032Z,16.60
2019-04-30T21:21:49.802Z,16.60
2019-04-30T21:24:19.441Z,16.60
2019-04-30T21:26:49.000Z,16.50
2019-04-30T21:29:18.886Z,16.50
2019-04-30T21:31:53.179Z,16.40
2019-04-30T21:34:33.178Z,16.40
2019-04-30T21:37:02.858Z,16.40
2019-04-30T21:39:33.574Z,16.40
2019-04-30T21:42:03.114Z,16.40
2019-04-30T21:44:32.745Z,16.40
2019-04-30T21:47:03.357Z,16.40
2019-04-30T21:49:33.062Z,16.50
2019-04-30T21:52:02.728Z,16.50
2019-04-30T21:54:32.358Z,16.60
2019-04-30T21:57:01.904Z,16.50
2019-04-30T21:59:31.466Z,16.50
2019-04-30T22:02:01.233Z,16.50
2019-04-30T22:04:30.941Z,16.50
2019-04-30T22:07:00.553Z,16.50
2019-04-30T22:09:31.232Z,16.50
2019-04-30T22:12:02.377Z,16.50
2019-04-30T22:14:32.965Z,16.50
2019-04-30T22:17:03.866Z,16.40
2019-04-30T22:19:33.430Z,16.40
2019-04-30T22:22:03.112Z,16.40
2019-04-30T22:24:32.684Z,16.40
2019-04-30T22:27:02.273Z,16.40
2019-04-30T22:29:39.283Z,16.40
2019-04-30T22:32:02.982Z,16.30
2019-04-30T22:34:33.172Z,16.20
2019-04-30T22:37:03.732Z,16.20
2019-04-30T22:39:35.024Z,16.20
2019-04-30T22:42:29.599Z,16.10
2019-04-30T22:44:59.695Z,16.10
2019-04-30T22:47:29.528Z,16.10
2019-04-30T22:49:59.114Z,16.00
2019-04-30T22:52:28.692Z,16.00
2019-04-30T22:54:58.231Z,16.00
2019-04-30T22:57:28.851Z,15.90
2019-04-30T22:59:58.428Z,15.90
2019-04-30T23:02:45.645Z,15.90
2019-04-30T23:05:17.655Z,15.90
2019-04-30T23:07:46.519Z,15.90
2019-04-30T23:10:17.423Z,15.80
2019-04-30T23:12:47.234Z,15.70
2019-04-30T23:15:19.395Z,15.70
2019-04-30T23:17:49.083Z,15.70
2019-04-30T23:20:18.726Z,15.70
2019-04-30T23:22:49.387Z,15.60
2019-04-30T23:25:18.950Z,15.50
2019-04-30T23:27:48.592Z,15.50
2019-04-30T23:30:18.205Z,15.50
2019-04-30T23:32:47.756Z,15.50
2019-04-30T23:35:17.401Z,15.50
2019-04-30T23:37:47.019Z,15.50
2019-04-30T23:40:24.614Z,15.40
2019-04-30T23:42:55.967Z,15.40
2019-04-30T23:45:25.706Z,15.40
2019-04-30T23:47:55.261Z,15.40
2019-04-30T23:50:24.940Z,15.30
2019-04-30T23:52:54.644Z,15.30
2019-04-30T23:55:24.256Z,15.30
2019-04-30T23:57:53.804Z,15.10
